createdAt,value
2016-08-22T00:00:01.198Z,20.47
2016-08-22T00:01:01.221Z,20.39
2016-08-22T00:02:01.247Z,20.36
2016-08-22T00:03:01.274Z,20.36
2016-08-22T00:04:01.298Z,20.39
2016-08-22T00:05:02.029Z,20.37
2016-08-22T00:06:02.050Z,20.31
2016-08-22T00:07:01.426Z,20.29
2016-08-22T00:08:01.397Z,20.29
2016-08-22T00:09:01.423Z,20.25
2016-08-22T00:10:01.451Z,20.26
2016-08-22T00:11:01.477Z,20.26
2016-08-22T00:12:01.499Z,20.28
2016-08-22T00:13:01.527Z,20.25
2016-08-22T00:14:01.546Z,20.25
2016-08-22T00:15:01.570Z,20.28
2016-08-22T00:16:01.614Z,20.28
2016-08-22T00:17:01.629Z,20.16
2016-08-22T00:18:01.652Z,20.13
2016-08-22T00:19:01.676Z,20.16
2016-08-22T00:20:01.697Z,20.14
2016-08-22T00:21:01.721Z,20.21
2016-08-22T00:22:01.751Z,20.1
2016-08-22T00:23:01.770Z,20.11
2016-08-22T00:24:01.803Z,20.11
2016-08-22T00:25:01.820Z,20.09
2016-08-22T00:26:01.846Z,20.02
2016-08-22T00:27:02.578Z,20.09
2016-08-22T00:28:01.892Z,20.11
2016-08-22T00:29:01.914Z,20.07
2016-08-22T00:30:01.953Z,20.04
2016-08-22T00:31:01.966Z,20.04
2016-08-22T00:32:01.989Z,20
2016-08-22T00:33:02.016Z,20.07
2016-08-22T00:34:02.044Z,20
2016-08-22T00:35:02.066Z,20.02
2016-08-22T00:36:02.803Z,20.03
2016-08-22T00:37:02.118Z,20.03
2016-08-22T00:38:02.143Z,19.95
2016-08-22T00:39:02.167Z,19.92
2016-08-22T00:40:02.191Z,19.95
2016-08-22T00:41:02.921Z,20.02
2016-08-22T00:42:02.241Z,19.92
2016-08-22T00:43:02.260Z,20.02
2016-08-22T00:44:02.292Z,19.94
2016-08-22T00:45:02.313Z,19.89
2016-08-22T00:46:02.340Z,19.94
2016-08-22T00:47:02.366Z,19.85
2016-08-22T00:48:03.109Z,19.86
2016-08-22T00:49:02.405Z,19.89
2016-08-22T00:50:02.438Z,19.95
2016-08-22T00:51:02.461Z,19.89
2016-08-22T00:52:02.484Z,19.89
2016-08-22T00:53:02.509Z,19.81
2016-08-22T00:54:02.539Z,19.84
2016-08-22T00:55:02.557Z,19.79
2016-08-22T00:56:02.588Z,19.85
2016-08-22T00:57:02.613Z,19.88
2016-08-22T00:58:04.130Z,19.84
2016-08-22T00:59:02.658Z,19.79
2016-08-22T01:00:02.678Z,19.77
2016-08-22T01:01:02.707Z,19.79
2016-08-22T01:02:02.737Z,19.82
2016-08-22T01:03:02.753Z,19.85
2016-08-22T01:04:02.787Z,19.79
2016-08-22T01:05:02.805Z,19.84
2016-08-22T01:06:02.833Z,19.7
2016-08-22T01:07:02.890Z,19.77
2016-08-22T01:08:02.884Z,19.73
2016-08-22T01:09:02.901Z,19.7
2016-08-22T01:10:03.629Z,19.76
2016-08-22T01:11:02.952Z,19.71
2016-08-22T01:12:03.676Z,19.79
2016-08-22T01:13:03.011Z,19.82
2016-08-22T01:14:03.035Z,19.79
2016-08-22T01:15:03.043Z,19.81
2016-08-22T01:16:03.080Z,19.67
2016-08-22T01:17:03.098Z,19.69
2016-08-22T01:18:03.160Z,19.82
2016-08-22T01:19:03.140Z,19.7
2016-08-22T01:20:03.168Z,19.79
2016-08-22T01:21:03.190Z,19.71
2016-08-22T01:22:03.223Z,19.79
2016-08-22T01:23:03.241Z,19.69
2016-08-22T01:24:03.284Z,19.81
2016-08-22T01:25:03.291Z,19.71
2016-08-22T01:26:03.309Z,19.77
2016-08-22T01:27:03.338Z,19.7
2016-08-22T01:28:03.372Z,19.71
2016-08-22T01:29:04.901Z,19.74
2016-08-22T01:30:03.425Z,19.73
2016-08-22T01:31:03.438Z,19.77
2016-08-22T01:32:03.460Z,19.63
2016-08-22T01:33:03.487Z,19.76
2016-08-22T01:34:03.507Z,19.7
2016-08-22T01:35:03.530Z,19.7
2016-08-22T01:36:03.561Z,19.64
2016-08-22T01:37:03.583Z,19.67
2016-08-22T01:38:03.614Z,19.71
2016-08-22T01:39:03.643Z,19.74
2016-08-22T01:40:03.707Z,19.59
2016-08-22T01:41:03.677Z,19.64
2016-08-22T01:42:03.709Z,19.67
2016-08-22T01:43:03.720Z,19.69
2016-08-22T01:44:03.746Z,19.63
2016-08-22T01:45:03.775Z,19.64
2016-08-22T01:46:04.505Z,19.56
2016-08-22T01:47:04.532Z,19.69
2016-08-22T01:48:03.843Z,19.64
2016-08-22T01:49:03.874Z,19.66
2016-08-22T01:50:03.893Z,19.73
2016-08-22T01:51:03.916Z,19.58
2016-08-22T01:52:03.943Z,19.56
2016-08-22T01:53:03.970Z,19.59
2016-08-22T01:54:03.994Z,19.62
2016-08-22T01:55:04.018Z,19.55
2016-08-22T01:56:04.042Z,19.64
2016-08-22T01:57:04.889Z,19.63
2016-08-22T01:58:04.085Z,19.56
2016-08-22T01:59:04.122Z,19.54
2016-08-22T02:00:04.137Z,19.59
2016-08-22T02:01:04.161Z,19.56
2016-08-22T02:02:04.187Z,19.59
2016-08-22T02:03:04.205Z,19.59
2016-08-22T02:04:04.231Z,19.63
2016-08-22T02:05:04.259Z,19.59
2016-08-22T02:06:04.296Z,19.55
2016-08-22T02:07:04.320Z,19.56
2016-08-22T02:08:04.344Z,19.55
2016-08-22T02:09:05.056Z,19.58
2016-08-22T02:10:04.431Z,19.51
2016-08-22T02:11:04.404Z,19.55
2016-08-22T02:12:04.433Z,19.56
2016-08-22T02:13:05.158Z,19.63
2016-08-22T02:14:04.474Z,19.56
2016-08-22T02:15:04.514Z,19.58
2016-08-22T02:16:05.235Z,19.58
2016-08-22T02:17:04.657Z,19.55
2016-08-22T02:18:04.690Z,19.63
2016-08-22T02:19:04.699Z,19.54
2016-08-22T02:20:05.577Z,19.47
2016-08-22T02:21:04.706Z,19.52
2016-08-22T02:22:05.376Z,19.54
2016-08-22T02:23:04.859Z,19.62
2016-08-22T02:24:05.424Z,19.59
2016-08-22T02:25:05.448Z,19.56
2016-08-22T02:26:04.899Z,19.55
2016-08-22T02:27:05.010Z,19.54
2016-08-22T02:28:04.919Z,19.49
2016-08-22T02:29:05.567Z,19.49
2016-08-22T02:30:04.942Z,19.55
2016-08-22T02:31:04.950Z,19.49
2016-08-22T02:32:04.982Z,19.54
2016-08-22T02:33:05.653Z,19.51
2016-08-22T02:34:05.001Z,19.59
2016-08-22T02:35:04.999Z,19.54
2016-08-22T02:36:05.721Z,19.41
2016-08-22T02:37:05.024Z,19.48
2016-08-22T02:38:05.055Z,19.56
2016-08-22T02:39:05.076Z,19.51
2016-08-22T02:40:05.107Z,19.47
2016-08-22T02:41:05.123Z,19.48
2016-08-22T02:42:05.156Z,19.41
2016-08-22T02:43:05.166Z,19.37
2016-08-22T02:44:05.199Z,19.47
2016-08-22T02:45:05.219Z,19.49
2016-08-22T02:46:05.257Z,19.45
2016-08-22T02:47:05.267Z,19.47
2016-08-22T02:48:05.310Z,19.34
2016-08-22T02:49:06.019Z,19.36
2016-08-22T02:50:05.349Z,19.41
2016-08-22T02:51:05.363Z,19.3
2016-08-22T02:52:05.393Z,19.37
2016-08-22T02:53:05.411Z,19.34
2016-08-22T02:54:05.452Z,19.37
2016-08-22T02:55:05.462Z,19.4
2016-08-22T02:56:05.493Z,19.39
2016-08-22T02:57:05.503Z,19.34
2016-08-22T02:58:05.529Z,19.45
2016-08-22T02:59:05.550Z,19.36
2016-08-22T03:00:05.578Z,19.41
2016-08-22T03:01:05.606Z,19.41
2016-08-22T03:02:05.646Z,19.4
2016-08-22T03:03:05.648Z,19.37
2016-08-22T03:04:05.672Z,19.47
2016-08-22T03:05:05.701Z,19.4
2016-08-22T03:06:05.723Z,19.41
2016-08-22T03:07:05.749Z,19.4
2016-08-22T03:08:05.768Z,19.41
2016-08-22T03:09:05.794Z,19.4
2016-08-22T03:10:05.821Z,19.45
2016-08-22T03:11:05.856Z,19.33
2016-08-22T03:12:05.864Z,19.36
2016-08-22T03:13:05.886Z,19.41
2016-08-22T03:14:05.919Z,19.39
2016-08-22T03:15:05.937Z,19.41
2016-08-22T03:16:05.960Z,19.37
2016-08-22T03:17:05.986Z,19.36
2016-08-22T03:18:06.009Z,19.34
2016-08-22T03:19:06.035Z,19.47
2016-08-22T03:20:06.053Z,19.34
2016-08-22T03:21:06.079Z,19.47
2016-08-22T03:22:06.102Z,19.34
2016-08-22T03:23:06.130Z,19.45
2016-08-22T03:24:06.151Z,19.45
2016-08-22T03:25:06.175Z,19.33
2016-08-22T03:26:07.032Z,19.31
2016-08-22T03:27:06.227Z,19.36
2016-08-22T03:28:06.247Z,19.45
2016-08-22T03:29:06.273Z,19.41
2016-08-22T03:30:06.293Z,19.33
2016-08-22T03:31:06.318Z,19.31
2016-08-22T03:32:06.344Z,19.3
2016-08-22T03:33:06.366Z,19.41
2016-08-22T03:34:06.392Z,19.31
2016-08-22T03:35:06.417Z,19.3
2016-08-22T03:36:06.436Z,19.33
2016-08-22T03:37:06.458Z,19.29
2016-08-22T03:38:06.489Z,19.41
2016-08-22T03:39:06.510Z,19.4
2016-08-22T03:40:06.531Z,19.31
2016-08-22T03:41:06.663Z,19.34
2016-08-22T03:42:06.694Z,19.33
2016-08-22T03:43:06.692Z,19.26
2016-08-22T03:44:06.740Z,19.27
2016-08-22T03:45:07.362Z,19.27
2016-08-22T03:46:06.820Z,19.33
2016-08-22T03:47:06.829Z,19.27
2016-08-22T03:48:06.839Z,19.36
2016-08-22T03:49:07.003Z,19.34
2016-08-22T03:50:07.031Z,19.31
2016-08-22T03:51:06.988Z,19.34
2016-08-22T03:52:07.004Z,19.34
2016-08-22T03:53:07.012Z,19.33
2016-08-22T03:54:07.022Z,19.34
2016-08-22T03:55:07.020Z,19.4
2016-08-22T03:56:07.028Z,19.3
2016-08-22T03:57:07.036Z,19.39
2016-08-22T03:58:07.716Z,19.3
2016-08-22T03:59:07.007Z,19.33
2016-08-22T04:00:07.016Z,19.29
2016-08-22T04:01:07.042Z,19.34
2016-08-22T04:02:07.052Z,19.34
2016-08-22T04:03:07.081Z,19.29
2016-08-22T04:04:07.106Z,19.3
2016-08-22T04:05:07.128Z,19.39
2016-08-22T04:06:07.155Z,19.29
2016-08-22T04:07:07.883Z,19.29
2016-08-22T04:08:07.201Z,19.27
2016-08-22T04:09:08.653Z,19.29
2016-08-22T04:10:07.249Z,19.27
2016-08-22T04:11:07.273Z,19.27
2016-08-22T04:12:07.295Z,19.21
2016-08-22T04:13:07.321Z,19.24
2016-08-22T04:14:07.344Z,19.29
2016-08-22T04:15:07.369Z,19.27
2016-08-22T04:16:07.392Z,19.27
2016-08-22T04:17:07.415Z,19.27
2016-08-22T04:18:07.438Z,19.19
2016-08-22T04:19:07.460Z,19.27
2016-08-22T04:20:07.485Z,19.3
2016-08-22T04:21:07.510Z,19.27
2016-08-22T04:22:07.532Z,19.29
2016-08-22T04:23:07.554Z,19.26
2016-08-22T04:24:07.575Z,19.29
2016-08-22T04:25:07.607Z,19.24
2016-08-22T04:26:07.625Z,19.21
2016-08-22T04:27:07.647Z,19.21
2016-08-22T04:28:07.675Z,19.24
2016-08-22T04:29:07.701Z,19.24
2016-08-22T04:30:07.729Z,19.3
2016-08-22T04:31:07.744Z,19.3
2016-08-22T04:32:07.774Z,19.19
2016-08-22T04:33:07.795Z,19.22
2016-08-22T04:34:07.819Z,19.27
2016-08-22T04:35:07.888Z,19.26
2016-08-22T04:36:07.866Z,19.22
2016-08-22T04:37:08.093Z,19.19
2016-08-22T04:38:07.916Z,19.24
2016-08-22T04:39:07.933Z,19.3
2016-08-22T04:40:07.959Z,19.16
2016-08-22T04:41:08.033Z,19.19
2016-08-22T04:42:08.007Z,19.31
2016-08-22T04:43:08.025Z,19.27
2016-08-22T04:44:08.057Z,19.29
2016-08-22T04:45:08.077Z,19.21
2016-08-22T04:46:08.103Z,19.22
2016-08-22T04:47:08.131Z,19.3
2016-08-22T04:48:08.147Z,19.29
2016-08-22T04:49:08.181Z,19.29
2016-08-22T04:50:08.197Z,19.3
2016-08-22T04:51:08.221Z,19.26
2016-08-22T04:52:08.247Z,19.26
2016-08-22T04:53:08.270Z,19.24
2016-08-22T04:54:08.493Z,19.26
2016-08-22T04:55:08.330Z,19.3
2016-08-22T04:56:08.341Z,19.37
2016-08-22T04:57:08.363Z,19.26
2016-08-22T04:58:08.397Z,19.29
2016-08-22T04:59:08.416Z,19.36
2016-08-22T05:00:08.439Z,19.34
2016-08-22T05:01:08.459Z,19.34
2016-08-22T05:02:08.490Z,19.33
2016-08-22T05:03:08.557Z,19.3
2016-08-22T05:04:08.580Z,19.37
2016-08-22T05:05:08.565Z,19.3
2016-08-22T05:06:08.577Z,19.34
2016-08-22T05:07:08.708Z,19.39
2016-08-22T05:08:08.709Z,19.37
2016-08-22T05:09:08.738Z,19.44
2016-08-22T05:10:08.765Z,19.33
2016-08-22T05:11:08.867Z,19.31
2016-08-22T05:12:08.877Z,19.33
2016-08-22T05:13:08.934Z,19.39
2016-08-22T05:14:08.895Z,19.41
2016-08-22T05:15:08.896Z,19.47
2016-08-22T05:16:08.903Z,19.37
2016-08-22T05:17:09.040Z,19.4
2016-08-22T05:18:09.761Z,19.39
2016-08-22T05:19:09.071Z,19.4
2016-08-22T05:20:09.066Z,19.44
2016-08-22T05:21:09.077Z,19.41
2016-08-22T05:22:09.085Z,19.45
2016-08-22T05:23:09.053Z,19.44
2016-08-22T05:24:09.110Z,19.36
2016-08-22T05:25:09.062Z,19.39
2016-08-22T05:26:09.069Z,19.33
2016-08-22T05:27:09.086Z,19.45
2016-08-22T05:28:09.108Z,19.44
2016-08-22T05:29:09.124Z,19.47
2016-08-22T05:30:09.154Z,19.41
2016-08-22T05:31:09.176Z,19.37
2016-08-22T05:32:09.191Z,19.37
2016-08-22T05:33:09.224Z,19.49
2016-08-22T05:34:09.248Z,19.44
2016-08-22T05:35:09.272Z,19.45
2016-08-22T05:36:09.429Z,19.36
2016-08-22T05:37:09.314Z,19.45
2016-08-22T05:38:09.340Z,19.49
2016-08-22T05:39:09.371Z,19.41
2016-08-22T05:40:09.401Z,19.51
2016-08-22T05:41:09.409Z,19.45
2016-08-22T05:42:09.434Z,19.58
2016-08-22T05:43:09.455Z,19.49
2016-08-22T05:44:09.478Z,19.49
2016-08-22T05:45:09.505Z,19.49
2016-08-22T05:46:09.532Z,19.54
2016-08-22T05:47:09.555Z,19.45
2016-08-22T05:48:09.619Z,19.52
2016-08-22T05:49:11.015Z,19.51
2016-08-22T05:50:09.625Z,19.69
2016-08-22T05:51:09.695Z,19.45
2016-08-22T05:52:09.671Z,19.66
2016-08-22T05:53:10.401Z,19.64
2016-08-22T05:54:09.716Z,19.55
2016-08-22T05:55:09.755Z,19.54
2016-08-22T05:56:09.766Z,19.58
2016-08-22T05:57:09.809Z,19.58
2016-08-22T05:58:09.819Z,19.62
2016-08-22T05:59:09.836Z,19.7
2016-08-22T06:00:09.862Z,19.69
2016-08-22T06:01:09.891Z,19.67
2016-08-22T06:02:09.907Z,19.69
2016-08-22T06:03:09.933Z,19.59
2016-08-22T06:04:10.162Z,19.73
2016-08-22T06:05:09.982Z,19.64
2016-08-22T06:06:10.003Z,19.69
2016-08-22T06:07:10.042Z,19.66
2016-08-22T06:08:10.055Z,19.69
2016-08-22T06:09:10.780Z,19.66
2016-08-22T06:10:10.808Z,19.73
2016-08-22T06:11:10.123Z,19.79
2016-08-22T06:12:10.146Z,19.73
2016-08-22T06:13:10.184Z,19.69
2016-08-22T06:14:10.204Z,19.82
2016-08-22T06:15:10.220Z,19.79
2016-08-22T06:16:10.952Z,19.84
2016-08-22T06:17:10.318Z,19.81
2016-08-22T06:18:10.292Z,19.81
2016-08-22T06:19:10.321Z,19.86
2016-08-22T06:20:10.346Z,19.88
2016-08-22T06:21:10.368Z,20
2016-08-22T06:22:10.389Z,19.92
2016-08-22T06:23:10.416Z,19.99
2016-08-22T06:24:10.439Z,20
2016-08-22T06:25:10.467Z,20.03
2016-08-22T06:26:10.482Z,20.06
2016-08-22T06:27:10.511Z,20.09
2016-08-22T06:28:10.545Z,20.16
2016-08-22T06:29:10.560Z,20.11
2016-08-22T06:30:10.582Z,20.14
2016-08-22T06:31:11.307Z,20.16
2016-08-22T06:32:10.631Z,20.26
2016-08-22T06:33:10.679Z,20.26
2016-08-22T06:34:10.683Z,20.36
2016-08-22T06:35:10.698Z,20.4
2016-08-22T06:36:10.725Z,20.4
2016-08-22T06:37:10.749Z,20.39
2016-08-22T06:38:10.775Z,20.56
2016-08-22T06:39:10.801Z,20.44
2016-08-22T06:40:10.821Z,20.47
2016-08-22T06:41:10.851Z,20.55
2016-08-22T06:42:10.879Z,20.55
2016-08-22T06:43:10.898Z,20.59
2016-08-22T06:44:10.921Z,20.6
2016-08-22T06:45:10.958Z,20.58
2016-08-22T06:46:10.974Z,20.72
2016-08-22T06:47:10.993Z,20.72
2016-08-22T06:48:11.014Z,20.77
2016-08-22T06:49:11.044Z,20.75
2016-08-22T06:50:11.071Z,20.84
2016-08-22T06:51:11.088Z,20.85
2016-08-22T06:52:11.121Z,20.93
2016-08-22T06:53:11.140Z,20.99
2016-08-22T06:54:11.209Z,21.03
2016-08-22T06:55:11.187Z,21.02
2016-08-22T06:56:11.421Z,21.02
2016-08-22T06:57:11.236Z,21.03
2016-08-22T06:58:11.263Z,21.07
2016-08-22T06:59:11.290Z,21.12
2016-08-22T07:00:12.031Z,21.24
2016-08-22T07:01:11.337Z,21.18
2016-08-22T07:02:11.365Z,21.21
2016-08-22T07:03:11.382Z,21.27
2016-08-22T07:04:12.120Z,21.33
2016-08-22T07:05:11.433Z,21.27
2016-08-22T07:06:12.169Z,21.27
2016-08-22T07:07:11.483Z,21.42
2016-08-22T07:08:11.510Z,21.36
2016-08-22T07:09:11.534Z,21.42
2016-08-22T07:10:11.557Z,21.42
2016-08-22T07:11:11.587Z,21.5
2016-08-22T07:12:11.609Z,21.51
2016-08-22T07:13:12.350Z,21.58
2016-08-22T07:14:11.661Z,21.54
2016-08-22T07:15:11.678Z,21.55
2016-08-22T07:16:11.706Z,21.58
2016-08-22T07:17:11.744Z,21.66
2016-08-22T07:18:11.753Z,21.7
2016-08-22T07:19:11.832Z,21.69
2016-08-22T07:20:11.805Z,21.77
2016-08-22T07:21:11.881Z,21.77
2016-08-22T07:22:12.570Z,21.8
2016-08-22T07:23:11.933Z,21.88
2016-08-22T07:24:11.911Z,21.85
2016-08-22T07:25:11.928Z,21.92
2016-08-22T07:26:11.957Z,21.96
2016-08-22T07:27:11.979Z,21.98
2016-08-22T07:28:12.004Z,22.06
2016-08-22T07:29:12.028Z,22
2016-08-22T07:30:12.056Z,22
2016-08-22T07:31:12.080Z,22.02
2016-08-22T07:32:12.112Z,22.06
2016-08-22T07:33:12.135Z,22.14
2016-08-22T07:34:12.153Z,22.15
2016-08-22T07:35:12.179Z,22.18
2016-08-22T07:36:12.207Z,22.29
2016-08-22T07:37:12.230Z,22.26
2016-08-22T07:38:12.277Z,22.25
2016-08-22T07:39:12.303Z,22.3
2016-08-22T07:40:12.311Z,22.35
2016-08-22T07:41:12.329Z,22.41
2016-08-22T07:42:12.363Z,22.41
2016-08-22T07:43:12.383Z,22.39
2016-08-22T07:44:12.404Z,22.47
2016-08-22T07:45:12.434Z,22.59
2016-08-22T07:46:12.462Z,22.55
2016-08-22T07:47:12.492Z,22.54
2016-08-22T07:48:12.511Z,22.51
2016-08-22T07:49:12.539Z,22.63
2016-08-22T07:50:12.606Z,22.62
2016-08-22T07:51:12.583Z,22.57
2016-08-22T07:52:12.612Z,22.59
2016-08-22T07:53:12.638Z,22.57
2016-08-22T07:54:12.661Z,22.69
2016-08-22T07:55:12.687Z,22.68
2016-08-22T07:56:12.715Z,22.7
2016-08-22T07:57:12.741Z,22.72
2016-08-22T07:58:12.760Z,22.83
2016-08-22T07:59:12.792Z,22.73
2016-08-22T08:00:13.559Z,22.84
2016-08-22T08:01:12.840Z,22.85
2016-08-22T08:02:12.868Z,22.8
2016-08-22T08:03:12.892Z,22.87
2016-08-22T08:04:12.921Z,22.84
2016-08-22T08:05:12.942Z,22.9
2016-08-22T08:06:12.972Z,22.88
2016-08-22T08:07:12.996Z,22.94
2016-08-22T08:08:13.021Z,22.98
2016-08-22T08:09:13.047Z,23.03
2016-08-22T08:10:13.083Z,23.05
2016-08-22T08:11:13.138Z,22.99
2016-08-22T08:12:13.136Z,22.98
2016-08-22T08:13:13.151Z,23.12
2016-08-22T08:14:13.175Z,23.12
2016-08-22T08:15:13.210Z,23.17
2016-08-22T08:16:13.231Z,23.12
2016-08-22T08:17:13.252Z,23.03
2016-08-22T08:18:13.283Z,23.2
2016-08-22T08:19:13.311Z,23.21
2016-08-22T08:20:13.330Z,23.24
2016-08-22T08:21:13.358Z,23.31
2016-08-22T08:22:13.382Z,23.27
2016-08-22T08:23:13.410Z,23.28
2016-08-22T08:24:13.434Z,23.31
2016-08-22T08:25:13.461Z,23.23
2016-08-22T08:26:13.488Z,23.28
2016-08-22T08:27:13.513Z,23.39
2016-08-22T08:28:13.539Z,23.37
2016-08-22T08:29:13.566Z,23.4
2016-08-22T08:30:13.596Z,23.47
2016-08-22T08:31:13.616Z,23.5
2016-08-22T08:32:13.661Z,23.51
2016-08-22T08:33:13.675Z,23.56
2016-08-22T08:34:13.694Z,23.65
2016-08-22T08:35:13.724Z,23.63
2016-08-22T08:36:13.750Z,23.69
2016-08-22T08:37:13.775Z,23.74
2016-08-22T08:38:13.805Z,23.8
2016-08-22T08:39:13.827Z,23.76
2016-08-22T08:40:13.858Z,23.71
2016-08-22T08:41:13.883Z,23.68
2016-08-22T08:42:13.961Z,23.8
2016-08-22T08:43:13.936Z,23.81
2016-08-22T08:44:13.962Z,23.87
2016-08-22T08:45:13.985Z,23.91
2016-08-22T08:46:14.022Z,23.88
2016-08-22T08:47:14.035Z,23.92
2016-08-22T08:48:14.069Z,24.01
2016-08-22T08:49:14.103Z,23.96
2016-08-22T08:50:14.118Z,24.13
2016-08-22T08:51:14.146Z,24.17
2016-08-22T08:52:14.172Z,24.13
2016-08-22T08:53:14.196Z,24.24
2016-08-22T08:54:14.230Z,24.29
2016-08-22T08:55:14.248Z,24.38
2016-08-22T08:56:14.329Z,24.42
2016-08-22T08:57:14.299Z,24.35
2016-08-22T08:58:14.329Z,24.33
2016-08-22T08:59:14.396Z,24.39
2016-08-22T09:00:14.380Z,24.43
2016-08-22T09:01:14.415Z,24.4
2016-08-22T09:02:14.437Z,24.42
2016-08-22T09:03:14.466Z,24.54
2016-08-22T09:04:15.468Z,24.53
2016-08-22T09:05:14.523Z,24.61
2016-08-22T09:06:14.538Z,24.6
2016-08-22T09:07:14.571Z,24.61
2016-08-22T09:08:14.598Z,24.66
2016-08-22T09:09:14.621Z,24.7
2016-08-22T09:10:14.650Z,24.81
2016-08-22T09:11:14.692Z,24.69
2016-08-22T09:12:14.703Z,24.84
2016-08-22T09:13:14.730Z,24.85
2016-08-22T09:14:14.965Z,24.84
2016-08-22T09:15:14.792Z,24.89
2016-08-22T09:16:14.815Z,24.99
2016-08-22T09:17:14.839Z,24.95
2016-08-22T09:18:14.867Z,25.06
2016-08-22T09:19:14.898Z,25.08
2016-08-22T09:20:14.923Z,25.11
2016-08-22T09:21:14.949Z,25.16
2016-08-22T09:22:14.972Z,25.28
2016-08-22T09:23:15.002Z,25.23
2016-08-22T09:24:15.027Z,25.31
2016-08-22T09:25:15.060Z,25.31
2016-08-22T09:26:15.080Z,25.44
2016-08-22T09:27:15.816Z,25.43
2016-08-22T09:28:15.245Z,25.6
2016-08-22T09:29:16.487Z,25.58
2016-08-22T09:30:15.279Z,25.65
2016-08-22T09:31:15.321Z,25.65
2016-08-22T09:32:15.355Z,25.77
2016-08-22T09:33:15.984Z,25.81
2016-08-22T09:34:15.298Z,25.85
2016-08-22T09:35:15.334Z,25.96
2016-08-22T09:36:15.457Z,25.99
2016-08-22T09:37:15.383Z,25.96
2016-08-22T09:38:15.409Z,26.07
2016-08-22T09:39:15.513Z,26.16
2016-08-22T09:40:15.476Z,26.06
2016-08-22T09:41:15.553Z,26.18
2016-08-22T09:42:15.566Z,26.23
2016-08-22T09:43:15.548Z,26.22
2016-08-22T09:44:15.641Z,26.26
2016-08-22T09:45:15.606Z,26.31
2016-08-22T09:46:15.628Z,26.28
2016-08-22T09:47:15.655Z,26.29
2016-08-22T09:48:15.684Z,26.31
2016-08-22T09:49:15.739Z,26.34
2016-08-22T09:50:15.739Z,26.37
2016-08-22T09:51:15.821Z,26.44
2016-08-22T09:52:15.797Z,26.43
2016-08-22T09:53:15.823Z,26.48
2016-08-22T09:54:16.058Z,26.47
2016-08-22T09:55:15.885Z,26.56
2016-08-22T09:56:15.907Z,26.63
2016-08-22T09:57:15.935Z,26.62
2016-08-22T09:58:15.976Z,26.62
2016-08-22T09:59:15.986Z,26.74
2016-08-22T10:00:16.017Z,26.71
2016-08-22T10:01:16.049Z,26.75
2016-08-22T10:02:16.792Z,26.75
2016-08-22T10:03:16.104Z,26.92
2016-08-22T10:04:16.134Z,26.95
2016-08-22T10:05:16.157Z,26.99
2016-08-22T10:06:16.187Z,26.97
2016-08-22T10:07:16.220Z,27.07
2016-08-22T10:08:16.245Z,27.27
2016-08-22T10:09:16.273Z,27.32
2016-08-22T10:10:16.307Z,27.33
2016-08-22T10:11:16.382Z,27.37
2016-08-22T10:12:17.065Z,27.44
2016-08-22T10:13:16.393Z,27.45
2016-08-22T10:14:16.417Z,27.49
2016-08-22T10:15:16.456Z,27.59
2016-08-22T10:16:16.491Z,27.68
2016-08-22T10:17:16.501Z,27.7
2016-08-22T10:18:16.547Z,27.68
2016-08-22T10:19:16.553Z,27.75
2016-08-22T10:20:16.587Z,27.8
2016-08-22T10:21:16.614Z,27.82
2016-08-22T10:22:16.643Z,27.8
2016-08-22T10:23:16.706Z,27.82
2016-08-22T10:24:16.750Z,27.78
2016-08-22T10:25:16.729Z,27.82
2016-08-22T10:26:17.465Z,27.8
2016-08-22T10:27:16.786Z,27.92
2016-08-22T10:28:16.815Z,27.9
2016-08-22T10:29:16.849Z,27.85
2016-08-22T10:30:16.871Z,27.89
2016-08-22T10:31:16.898Z,27.9
2016-08-22T10:32:16.934Z,27.93
2016-08-22T10:33:17.665Z,27.96
2016-08-22T10:34:16.985Z,27.89
2016-08-22T10:35:17.729Z,27.98
2016-08-22T10:36:17.049Z,28.04
2016-08-22T10:37:17.202Z,28.04
2016-08-22T10:38:17.100Z,28.07
2016-08-22T10:39:17.132Z,28.04
2016-08-22T10:40:17.159Z,28.05
2016-08-22T10:41:17.191Z,28.07
2016-08-22T10:42:17.222Z,28.1
2016-08-22T10:43:17.246Z,28.15
2016-08-22T10:44:17.996Z,28.22
2016-08-22T10:45:18.118Z,28.25
2016-08-22T10:46:17.334Z,28.29
2016-08-22T10:47:17.369Z,28.41
2016-08-22T10:48:17.392Z,28.39
2016-08-22T10:49:18.177Z,28.48
2016-08-22T10:50:17.458Z,28.49
2016-08-22T10:51:17.479Z,28.63
2016-08-22T10:52:18.255Z,28.67
2016-08-22T10:53:17.540Z,28.66
2016-08-22T10:54:17.578Z,28.89
2016-08-22T10:55:17.603Z,29.01
2016-08-22T10:56:17.629Z,28.91
2016-08-22T10:57:17.659Z,29.04
2016-08-22T10:58:17.757Z,29.19
2016-08-22T10:59:17.716Z,29.24
2016-08-22T11:00:18.457Z,29.38
2016-08-22T11:01:18.492Z,29.42
2016-08-22T11:02:17.811Z,29.49
2016-08-22T11:03:17.839Z,29.53
2016-08-22T11:04:17.865Z,29.59
2016-08-22T11:05:17.897Z,29.68
2016-08-22T11:06:17.926Z,29.72
2016-08-22T11:07:18.233Z,29.76
2016-08-22T11:08:18.084Z,29.86
2016-08-22T11:09:18.115Z,29.91
2016-08-22T11:10:18.123Z,29.97
2016-08-22T11:11:18.122Z,30.02
2016-08-22T11:12:18.131Z,30.16
2016-08-22T11:13:18.143Z,30.15
2016-08-22T11:14:18.872Z,30.31
2016-08-22T11:15:18.301Z,30.4
2016-08-22T11:16:18.317Z,30.4
2016-08-22T11:17:18.367Z,30.47
2016-08-22T11:18:18.997Z,30.48
2016-08-22T11:19:18.374Z,30.5
2016-08-22T11:20:18.385Z,30.48
2016-08-22T11:21:18.393Z,30.54
2016-08-22T11:22:18.609Z,30.51
2016-08-22T11:23:19.143Z,30.5
2016-08-22T11:24:18.469Z,30.59
2016-08-22T11:25:18.500Z,30.59
2016-08-22T11:26:18.562Z,30.51
2016-08-22T11:27:18.559Z,30.51
2016-08-22T11:28:18.791Z,30.47
2016-08-22T11:29:18.623Z,30.48
2016-08-22T11:30:18.652Z,30.44
2016-08-22T11:31:18.685Z,30.47
2016-08-22T11:32:18.713Z,30.51
2016-08-22T11:33:18.741Z,30.5
2016-08-22T11:34:18.883Z,30.43
2016-08-22T11:35:18.807Z,30.37
2016-08-22T11:36:18.838Z,30.35
2016-08-22T11:37:18.866Z,30.32
2016-08-22T11:38:18.908Z,30.27
2016-08-22T11:39:18.928Z,30.24
2016-08-22T11:40:18.969Z,30.24
2016-08-22T11:41:19.696Z,30.3
2016-08-22T11:42:19.125Z,30.18
2016-08-22T11:43:19.760Z,30.16
2016-08-22T11:44:19.197Z,30.23
2016-08-22T11:45:19.360Z,30.15
2016-08-22T11:46:19.149Z,30.13
2016-08-22T11:47:19.301Z,30.16
2016-08-22T11:48:19.208Z,30.15
2016-08-22T11:49:19.363Z,30.08
2016-08-22T11:50:19.270Z,30.08
2016-08-22T11:51:19.299Z,30.1
2016-08-22T11:52:19.335Z,30.03
2016-08-22T11:53:19.365Z,30.09
2016-08-22T11:54:19.391Z,30.03
2016-08-22T11:55:19.568Z,30.05
2016-08-22T11:56:19.458Z,30.12
2016-08-22T11:57:19.492Z,30.03
2016-08-22T11:58:19.527Z,30.03
2016-08-22T11:59:19.550Z,29.97
2016-08-22T12:00:19.581Z,29.9
2016-08-22T12:01:19.624Z,29.82
2016-08-22T12:02:19.758Z,29.81
2016-08-22T12:03:19.687Z,29.73
2016-08-22T12:04:19.721Z,29.72
2016-08-22T12:05:19.736Z,29.72
2016-08-22T12:06:19.854Z,29.75
2016-08-22T12:07:19.808Z,29.69
2016-08-22T12:08:19.941Z,29.65
2016-08-22T12:09:19.863Z,29.61
2016-08-22T12:10:19.894Z,29.54
2016-08-22T12:11:19.927Z,29.61
2016-08-22T12:12:19.962Z,29.59
2016-08-22T12:13:19.988Z,29.61
2016-08-22T12:14:20.833Z,29.6
2016-08-22T12:15:20.279Z,29.61
2016-08-22T12:16:20.790Z,29.73
2016-08-22T12:17:20.110Z,29.69
2016-08-22T12:18:20.139Z,29.73
2016-08-22T12:19:20.186Z,29.75
2016-08-22T12:20:20.212Z,29.76
2016-08-22T12:21:20.250Z,29.65
2016-08-22T12:22:20.340Z,29.72
2016-08-22T12:23:21.000Z,29.72
2016-08-22T12:24:20.351Z,29.68
2016-08-22T12:25:20.583Z,29.72
2016-08-22T12:26:20.447Z,29.76
2016-08-22T12:27:20.899Z,29.78
2016-08-22T12:28:20.455Z,29.81
2016-08-22T12:29:20.484Z,29.82
2016-08-22T12:30:20.693Z,29.81
2016-08-22T12:31:20.544Z,29.84
2016-08-22T12:32:20.574Z,29.79
2016-08-22T12:33:20.611Z,29.88
2016-08-22T12:34:20.666Z,29.84
2016-08-22T12:35:20.671Z,29.88
2016-08-22T12:36:20.698Z,29.84
2016-08-22T12:37:21.439Z,29.86
2016-08-22T12:38:20.883Z,29.95
2016-08-22T12:39:20.842Z,30
2016-08-22T12:40:20.831Z,29.95
2016-08-22T12:41:20.865Z,29.98
2016-08-22T12:42:20.884Z,30
2016-08-22T12:43:20.977Z,30.02
2016-08-22T12:44:20.960Z,29.98
2016-08-22T12:45:21.255Z,30.05
2016-08-22T12:46:21.015Z,30.02
2016-08-22T12:47:21.043Z,30.06
2016-08-22T12:48:21.095Z,30
2016-08-22T12:49:21.109Z,30.06
2016-08-22T12:50:21.142Z,30.06
2016-08-22T12:51:21.283Z,30.03
2016-08-22T12:52:21.202Z,30.03
2016-08-22T12:53:21.937Z,30.05
2016-08-22T12:54:21.262Z,30.05
2016-08-22T12:55:21.298Z,29.98